Time;durP1;ratioP1;P1;durP2;ratioP2;P2;SDS_P1;SDS_P2;PMS_P1;PMS_P2;Temp;Humidity;BMP_temperature;BMP_pressure;BME280_temperature;BME280_humidity;BME280_pressure;Samples;Min_cycle;Max_cycle;Signal;HPM_P1;HPM_P2
2021/12/20 00:01:59;;;;;;;;;;;;;;;;;;5150494;27;44497;-69
2021/12/20 00:04:26;;;;;;;;;;;;;;;;;;5150790;27;45796;-69
2021/12/20 00:06:52;;;;;;;;;;;;;;;;;;5150014;27;44960;-69
2021/12/20 00:09:18;;;;;;;;;;;;;;;;;;5150877;27;45604;-69
2021/12/20 00:11:44;;;;;;;;;;;;;;;;;;5149551;27;45459;-70
2021/12/20 00:14:11;;;;;;;;;;;;;;;;;;5150846;27;45361;-69
2021/12/20 00:16:37;;;;;;;;;;;;;;;;;;5149708;27;43445;-69
2021/12/20 00:19:04;;;;;;;;;;;;;;;;;;5149203;27;44718;-70
2021/12/20 00:21:30;;;;;;;;;;;;;;;;;;5150080;27;44502;-69
2021/12/20 00:23:56;;;;;;;;;;;;;;;;;;5150033;27;44702;-69
2021/12/20 00:26:22;;;;;;;;;;;;;;;;;;5150436;27;43488;-69
2021/12/20 00:28:48;;;;;;;;;;;;;;;;;;5149967;27;45487;-69
2021/12/20 00:31:15;;;;;;;;;;;;;;;;;;5149609;27;45623;-69
2021/12/20 00:33:41;;;;;;;;;;;;;;;;;;5149988;27;44826;-69
2021/12/20 00:36:07;;;;;;;;;;;;;;;;;;5149437;27;45485;-69
2021/12/20 00:41:18;;;;;;;;;;;;;;;;;;5149965;27;43716;-69
2021/12/20 00:43:45;;;;;;;;;;;;;;;;;;5149189;27;46357;-69
2021/12/20 00:46:11;;;;;;;;;;;;;;;;;;5149540;27;45867;-69
2021/12/20 00:48:37;;;;;;;;;;;;;;;;;;5149458;27;45473;-69
2021/12/20 00:51:03;;;;;;;;;;;;;;;;;;5149321;27;44521;-69
2021/12/20 00:53:30;;;;;;;;;;;;;;;;;;5149460;27;43903;-69
2021/12/20 00:55:56;;;;;;;;;;;;;;;;;;5150173;27;43015;-69
2021/12/20 00:58:22;;;;;;;;;;;;;;;;;;5149749;27;45796;-69
2021/12/20 01:00:48;;;;;;;;;;;;;;;;;;5149821;27;44857;-69
2021/12/20 01:03:14;;;;;;;;;;;;;;;;;;5149241;27;45582;-69
2021/12/20 01:05:41;;;;;;;;;;;;;;;;;;5149954;27;33912;-69
2021/12/20 01:08:08;;;;;;;;;;;;;;;;;;5149150;27;46513;-69
2021/12/20 01:10:34;;;;;;;;;;;;;;;;;;5150026;27;45810;-69
2021/12/20 01:13:01;;;;;;;;;;;;;;;;;;5149433;27;43602;-69
2021/12/20 01:15:28;;;;;;;;;;;;;;;;;;5149458;27;45977;-69
2021/12/20 01:17:54;;;;;;;;;;;;;;;;;;5149767;27;45782;-69
2021/12/20 01:20:21;;;;;;;;;;;;;;;;;;5149828;27;42985;-69
2021/12/20 01:22:47;;;;;;;;;;;;;;;;;;5148840;27;44221;-69
2021/12/20 01:25:13;;;;;;;;;;;;;;;;;;5148272;27;44710;-69
2021/12/20 01:27:39;;;;;;;;;;;;;;;;;;5149191;27;45404;-69
2021/12/20 01:30:06;;;;;;;;;;;;;;;;;;5148763;27;45669;-69
2021/12/20 01:32:32;;;;;;;;;;;;;;;;;;5148583;27;44673;-69
2021/12/20 01:34:58;;;;;;;;;;;;;;;;;;5149639;27;45691;-68
2021/12/20 01:37:24;;;;;;;;;;;;;;;;;;5149091;27;44701;-69
2021/12/20 01:39:52;;;;;;;;;;;;;;;;;;5148968;27;43608;-69
2021/12/20 01:42:18;;;;;;;;;;;;;;;;;;5149155;27;45406;-69
2021/12/20 01:44:44;;;;;;;;;;;;;;;;;;5149299;27;45224;-69
2021/12/20 01:47:12;;;;;;;;;;;;;;;;;;5149808;27;44074;-68
2021/12/20 01:49:51;;;;;;;;;;;;;;;;;;5149173;27;44317;-69
2021/12/20 01:52:20;;;;;;;;;;;;;;;;;;5148764;27;43248;-69
2021/12/20 01:54:46;;;;;;;;;;;;;;;;;;5149388;27;45441;-68
2021/12/20 01:57:13;;;;;;;;;;;;;;;;;;5147805;27;44685;-69
2021/12/20 01:59:39;;;;;;;;;;;;;;;;;;5148537;27;44590;-68
2021/12/20 02:02:05;;;;;;;;;;;;;;;;;;5148710;27;45695;-69
2021/12/20 02:04:41;;;;;;;;;;;;;;;;;;5148761;27;45686;-69
2021/12/20 02:07:07;;;;;;;;;;;;;;;;;;5149132;27;43709;-69
2021/12/20 02:09:33;;;;;;;;;;;;;;;;;;5148809;27;44392;-68
2021/12/20 02:11:59;;;;;;;;;;;;;;;;;;5149363;27;43904;-69
2021/12/20 02:14:25;;;;;;;;;;;;;;;;;;5148469;27;43355;-68
2021/12/20 02:16:52;;;;;;;;;;;;;;;;;;5148347;27;44660;-68
2021/12/20 02:19:18;;;;;;;;;;;;;;;;;;5147518;27;44835;-69
2021/12/20 02:21:44;;;;;;;;;;;;;;;;;;5148048;27;46373;-68
2021/12/20 02:24:10;;;;;;;;;;;;;;;;;;5148851;27;46569;-68
2021/12/20 02:26:37;;;;;;;;;;;;;;;;;;5148106;27;44158;-68
2021/12/20 02:29:06;;;;;;;;;;;;;;;;;;5148159;27;45478;-68
2021/12/20 02:37:19;;;;;;;;;;;;;;;;;;5152269;27;44196;-69
2021/12/20 02:39:45;;;;;;;;;;;;;;;;;;5151650;27;43731;-68
2021/12/20 02:42:12;;;;;;;;;;;;;;;;;;5151764;27;44405;-68
2021/12/20 02:44:39;;;;;;;;;;;;;;;;;;5151897;27;45318;-68
2021/12/20 02:47:08;;;;;;;;;;;;;;;;;;5151251;27;43828;-68
2021/12/20 02:49:35;;;;;;;;;;;;;;;;;;5151236;27;44406;-68
2021/12/20 02:52:01;;;;;;;;;;;;;;;;;;5151999;27;46319;-68
2021/12/20 02:54:27;;;;;;;;;;;;;;;;;;5152113;27;43211;-68
2021/12/20 02:56:53;;;;;;;;;;;;;;;;;;5150502;27;45972;-68
2021/12/20 02:59:20;;;;;;;;;;;;;;;;;;5151496;27;44784;-69
2021/12/20 03:01:46;;;;;;;;;;;;;;;;;;5151584;27;43316;-69
2021/12/20 03:04:12;;;;;;;;;;;;;;;;;;5151173;27;45822;-69
2021/12/20 03:06:39;;;;;;;;;;;;;;;;;;5151288;27;43876;-69
2021/12/20 03:09:05;;;;;;;;;;;;;;;;;;5150299;27;44718;-68
2021/12/20 03:11:31;;;;;;;;;;;;;;;;;;5151327;27;44488;-69
2021/12/20 03:14:08;;;;;;;;;;;;;;;;;;5151684;27;44550;-68
2021/12/20 03:16:34;;;;;;;;;;;;;;;;;;5150569;27;45595;-69
2021/12/20 03:19:00;;;;;;;;;;;;;;;;;;5150990;27;44792;-69
2021/12/20 03:21:27;;;;;;;;;;;;;;;;;;5151379;27;45646;-68
2021/12/20 03:23:54;;;;;;;;;;;;;;;;;;5150693;27;45871;-68
2021/12/20 03:26:20;;;;;;;;;;;;;;;;;;5150260;27;42426;-69
2021/12/20 03:28:47;;;;;;;;;;;;;;;;;;5151215;27;42293;-68
2021/12/20 03:31:14;;;;;;;;;;;;;;;;;;5151486;27;44512;-69
2021/12/20 03:33:40;;;;;;;;;;;;;;;;;;5150790;27;43883;-69
2021/12/20 03:36:06;;;;;;;;;;;;;;;;;;5150915;27;45690;-69
2021/12/20 03:38:32;;;;;;;;;;;;;;;;;;5151342;27;43416;-68
2021/12/20 03:40:58;;;;;;;;;;;;;;;;;;5151486;27;45053;-68
2021/12/20 03:43:31;;;;;;;;;;;;;;;;;;5150432;27;45864;-69
2021/12/20 03:45:57;;;;;;;;;;;;;;;;;;5150636;27;44680;-69
2021/12/20 03:48:24;;;;;;;;;;;;;;;;;;5150243;27;45866;-69
2021/12/20 03:50:50;;;;;;;;;;;;;;;;;;5150356;27;44067;-69
2021/12/20 03:53:16;;;;;;;;;;;;;;;;;;5150207;27;44320;-69
2021/12/20 03:55:42;;;;;;;;;;;;;;;;;;5150521;27;44380;-69
2021/12/20 03:58:09;;;;;;;;;;;;;;;;;;5150739;27;44800;-69
2021/12/20 04:00:35;;;;;;;;;;;;;;;;;;5150309;27;45452;-69
2021/12/20 04:03:07;;;;;;;;;;;;;;;;;;5150365;27;45027;-69
2021/12/20 04:05:34;;;;;;;;;;;;;;;;;;5150895;27;44043;-68
2021/12/20 04:08:00;;;;;;;;;;;;;;;;;;5151137;27;44734;-69
2021/12/20 04:10:26;;;;;;;;;;;;;;;;;;5150227;27;45752;-69
2021/12/20 04:12:52;;;;;;;;;;;;;;;;;;5149486;27;43823;-69
2021/12/20 04:15:18;;;;;;;;;;;;;;;;;;5150621;27;44406;-68
2021/12/20 04:17:45;;;;;;;;;;;;;;;;;;5150315;27;44759;-69
2021/12/20 04:20:11;;;;;;;;;;;;;;;;;;5151089;27;43700;-69
2021/12/20 04:22:37;;;;;;;;;;;;;;;;;;5149291;27;46163;-69
2021/12/20 04:25:04;;;;;;;;;;;;;;;;;;5149578;27;44916;-69
2021/12/20 04:27:30;;;;;;;;;;;;;;;;;;5150312;27;44383;-69
2021/12/20 04:29:56;;;;;;;;;;;;;;;;;;5149974;27;44654;-69
2021/12/20 04:32:22;;;;;;;;;;;;;;;;;;5150208;27;43576;-69
2021/12/20 04:34:49;;;;;;;;;;;;;;;;;;5150246;27;44396;-69
2021/12/20 04:37:15;;;;;;;;;;;;;;;;;;5149974;27;44665;-69
2021/12/20 04:39:41;;;;;;;;;;;;;;;;;;5149601;27;43566;-69
2021/12/20 04:42:08;;;;;;;;;;;;;;;;;;5150944;27;44414;-69
2021/12/20 04:44:34;;;;;;;;;;;;;;;;;;5148497;27;44798;-69
2021/12/20 04:47:00;;;;;;;;;;;;;;;;;;5148596;27;44408;-69
2021/12/20 04:49:27;;;;;;;;;;;;;;;;;;5148872;27;44666;-69
2021/12/20 04:51:53;;;;;;;;;;;;;;;;;;5149532;27;43572;-69
2021/12/20 04:54:19;;;;;;;;;;;;;;;;;;5150075;27;44395;-69
2021/12/20 04:56:45;;;;;;;;;;;;;;;;;;5150139;27;46095;-69
2021/12/20 04:59:11;;;;;;;;;;;;;;;;;;5149386;27;43733;-69
2021/12/20 05:01:38;;;;;;;;;;;;;;;;;;5149520;27;44468;-69
2021/12/20 05:04:04;;;;;;;;;;;;;;;;;;5150008;27;44567;-70
2021/12/20 05:06:32;;;;;;;;;;;;;;;;;;5149136;27;45191;-69
2021/12/20 05:08:59;;;;;;;;;;;;;;;;;;5149145;27;44815;-70
2021/12/20 05:11:28;;;;;;;;;;;;;;;;;;5149904;27;43235;-69
2021/12/20 05:13:55;;;;;;;;;;;;;;;;;;5149105;27;45103;-70
2021/12/20 05:16:21;;;;;;;;;;;;;;;;;;5147560;27;44705;-69
2021/12/20 05:18:47;;;;;;;;;;;;;;;;;;5148928;27;42117;-70
2021/12/20 05:21:13;;;;;;;;;;;;;;;;;;5149362;27;44549;-70
2021/12/20 05:23:40;;;;;;;;;;;;;;;;;;5149482;27;45687;-69
2021/12/20 05:26:06;;;;;;;;;;;;;;;;;;5148839;27;46075;-69
2021/12/20 05:28:32;;;;;;;;;;;;;;;;;;5149191;27;44746;-70
2021/12/20 05:30:59;;;;;;;;;;;;;;;;;;5149312;27;44935;-69
2021/12/20 05:33:25;;;;;;;;;;;;;;;;;;5149367;27;44192;-69
2021/12/20 05:35:51;;;;;;;;;;;;;;;;;;5149399;27;44521;-69
2021/12/20 05:38:23;;;;;;;;;;;;;;;;;;5148212;27;45229;-70
2021/12/20 05:40:49;;;;;;;;;;;;;;;;;;5148827;27;45560;-69
2021/12/20 05:43:15;;;;;;;;;;;;;;;;;;5149954;27;45605;-69
2021/12/20 05:45:41;;;;;;;;;;;;;;;;;;5149542;27;44920;-69
2021/12/20 05:48:07;;;;;;;;;;;;;;;;;;5148902;27;44674;-69
2021/12/20 05:50:34;;;;;;;;;;;;;;;;;;5148766;27;44966;-70
2021/12/20 05:53:00;;;;;;;;;;;;;;;;;;5148902;27;45008;-70
2021/12/20 05:55:26;;;;;;;;;;;;;;;;;;5148524;27;45761;-69
2021/12/20 05:57:52;;;;;;;;;;;;;;;;;;5149217;27;44977;-69
2021/12/20 06:00:19;;;;;;;;;;;;;;;;;;5149041;27;44227;-70
2021/12/20 06:02:45;;;;;;;;;;;;;;;;;;5147692;27;45980;-70
2021/12/20 06:05:11;;;;;;;;;;;;;;;;;;5148520;27;44962;-69
2021/12/20 06:07:40;;;;;;;;;;;;;;;;;;5148564;27;45306;-69
2021/12/20 06:10:07;;;;;;;;;;;;;;;;;;5149655;27;43706;-70
2021/12/20 06:12:33;;;;;;;;;;;;;;;;;;5151766;27;44372;-70
2021/12/20 06:14:59;;;;;;;;;;;;;;;;;;5151898;27;44832;-70
2021/12/20 06:17:25;;;;;;;;;;;;;;;;;;5152513;27;43225;-70
2021/12/20 06:19:52;;;;;;;;;;;;;;;;;;5151965;27;45324;-69
2021/12/20 06:22:18;;;;;;;;;;;;;;;;;;5152395;27;43223;-69
2021/12/20 06:24:44;;;;;;;;;;;;;;;;;;5152458;27;43730;-70
2021/12/20 06:27:11;;;;;;;;;;;;;;;;;;5151155;27;43072;-70
2021/12/20 06:29:37;;;;;;;;;;;;;;;;;;5152390;27;45682;-70
2021/12/20 06:32:03;;;;;;;;;;;;;;;;;;5152337;27;45489;-69
2021/12/20 06:34:29;;;;;;;;;;;;;;;;;;5152503;27;45786;-70
2021/12/20 06:36:59;;;;;;;;;;;;;;;;;;5152282;27;45478;-69
2021/12/20 06:39:30;;;;;;;;;;;;;;;;;;5152197;27;45473;-70
2021/12/20 06:41:57;;;;;;;;;;;;;;;;;;5151939;27;45825;-70
2021/12/20 06:44:23;;;;;;;;;;;;;;;;;;5151454;27;44867;-70
2021/12/20 06:46:49;;;;;;;;;;;;;;;;;;5151577;27;44490;-70
2021/12/20 06:49:16;;;;;;;;;;;;;;;;;;5151758;27;44904;-70
2021/12/20 06:51:43;;;;;;;;;;;;;;;;;;5151059;27;43574;-69
2021/12/20 06:54:09;;;;;;;;;;;;;;;;;;5150555;27;44353;-70
2021/12/20 06:56:37;;;;;;;;;;;;;;;;;;5151976;27;45144;-69
2021/12/20 06:59:03;;;;;;;;;;;;;;;;;;5151081;27;44947;-69
2021/12/20 07:01:30;;;;;;;;;;;;;;;;;;5151490;27;45771;-70
2021/12/20 07:03:56;;;;;;;;;;;;;;;;;;5151006;27;43718;-70
2021/12/20 07:06:26;;;;;;;;;;;;;;;;;;5152047;27;45059;-70
2021/12/20 07:08:52;;;;;;;;;;;;;;;;;;5151395;27;46865;-70
2021/12/20 07:11:18;;;;;;;;;;;;;;;;;;5151439;27;44072;-70
2021/12/20 07:13:45;;;;;;;;;;;;;;;;;;5151361;27;45792;-69
2021/12/20 07:16:12;;;;;;;;;;;;;;;;;;5148762;27;43717;-70
2021/12/20 07:18:38;;;;;;;;;;;;;;;;;;5151357;27;44257;-70
2021/12/20 07:21:05;;;;;;;;;;;;;;;;;;5151062;27;45880;-70
2021/12/20 07:23:31;;;;;;;;;;;;;;;;;;5151162;27;42392;-70
2021/12/20 07:25:57;;;;;;;;;;;;;;;;;;5151694;27;45444;-70
2021/12/20 07:28:23;;;;;;;;;;;;;;;;;;5151374;27;44905;-70
2021/12/20 07:30:50;;;;;;;;;;;;;;;;;;5150401;27;44778;-70
2021/12/20 07:33:18;;;;;;;;;;;;;;;;;;5151218;27;45766;-70
2021/12/20 07:35:45;;;;;;;;;;;;;;;;;;5151058;27;44816;-69
2021/12/20 07:38:13;;;;;;;;;;;;;;;;;;5150818;27;44345;-70
2021/12/20 07:40:39;;;;;;;;;;;;;;;;;;5150171;27;44791;-69
2021/12/20 07:43:05;;;;;;;;;;;;;;;;;;5150358;27;43605;-70
2021/12/20 07:45:32;;;;;;;;;;;;;;;;;;5150986;27;45599;-69
2021/12/20 07:47:59;;;;;;;;;;;;;;;;;;5149817;27;43541;-68
2021/12/20 07:50:25;;;;;;;;;;;;;;;;;;5158513;27;44160;-69
2021/12/20 07:52:51;;;;;;;;;;;;;;;;;;5150659;27;45809;-69
2021/12/20 07:55:17;;;;;;;;;;;;;;;;;;5155598;27;45862;-69
2021/12/20 07:57:44;;;;;;;;;;;;;;;;;;5156895;27;44387;-69
2021/12/20 08:00:10;;;;;;;;;;;;;;;;;;5155940;27;44680;-69
2021/12/20 08:02:36;;;;;;;;;;;;;;;;;;5157310;27;44848;-70
2021/12/20 08:05:03;;;;;;;;;;;;;;;;;;5161812;27;45551;-70
2021/12/20 08:07:29;;;;;;;;;;;;;;;;;;5154490;27;45869;-71
2021/12/20 08:09:55;;;;;;;;;;;;;;;;;;5169651;27;44824;-70
2021/12/20 08:12:21;;;;;;;;;;;;;;;;;;5167261;27;44220;-70
2021/12/20 08:14:48;;;;;;;;;;;;;;;;;;5153253;27;46171;-71
2021/12/20 08:17:14;;;;;;;;;;;;;;;;;;5167286;27;43724;-71
2021/12/20 08:19:40;;;;;;;;;;;;;;;;;;5171706;27;46079;-70
2021/12/20 08:22:06;;;;;;;;;;;;;;;;;;5153663;27;44620;-70
2021/12/20 08:24:33;;;;;;;;;;;;;;;;;;5151350;27;44459;-70
2021/12/20 08:26:59;;;;;;;;;;;;;;;;;;5151155;27;44724;-70
2021/12/20 08:29:26;;;;;;;;;;;;;;;;;;5149693;27;41296;-71
2021/12/20 08:31:52;;;;;;;;;;;;;;;;;;5152458;27;45665;-71
2021/12/20 08:34:18;;;;;;;;;;;;;;;;;;5155068;27;44515;-70
2021/12/20 08:36:44;;;;;;;;;;;;;;;;;;5156594;27;44775;-70
2021/12/20 08:39:17;;;;;;;;;;;;;;;;;;5166570;27;44394;-70
2021/12/20 08:41:43;;;;;;;;;;;;;;;;;;5152991;27;42985;-69
2021/12/20 08:44:10;;;;;;;;;;;;;;;;;;5148568;27;45793;-70
2021/12/20 08:46:36;;;;;;;;;;;;;;;;;;5158901;27;45742;-69
2021/12/20 08:49:02;;;;;;;;;;;;;;;;;;5167027;27;44879;-69
2021/12/20 08:51:28;;;;;;;;;;;;;;;;;;5158295;27;43103;-69
2021/12/20 08:53:55;;;;;;;;;;;;;;;;;;5171714;27;45860;-69
2021/12/20 08:56:21;;;;;;;;;;;;;;;;;;5156658;27;45141;-69
2021/12/20 08:58:48;;;;;;;;;;;;;;;;;;5157479;27;44378;-69
2021/12/20 09:01:14;;;;;;;;;;;;;;;;;;5157410;27;45893;-69
2021/12/20 09:03:41;;;;;;;;;;;;;;;;;;5150003;27;44295;-69
2021/12/20 09:06:08;;;;;;;;;;;;;;;;;;5159290;27;45745;-69
2021/12/20 09:08:34;;;;;;;;;;;;;;;;;;5165382;27;43683;-68
2021/12/20 09:11:01;;;;;;;;;;;;;;;;;;5155415;27;45347;-69
2021/12/20 09:13:27;;;;;;;;;;;;;;;;;;5154886;27;45005;-69
2021/12/20 09:15:58;;;;;;;;;;;;;;;;;;5148503;27;43731;-69
2021/12/20 09:18:25;;;;;;;;;;;;;;;;;;5149897;27;46383;-69
2021/12/20 09:20:52;;;;;;;;;;;;;;;;;;5155833;27;44735;-69
2021/12/20 09:23:18;;;;;;;;;;;;;;;;;;5162056;27;43616;-69
2021/12/20 09:25:46;;;;;;;;;;;;;;;;;;5166965;27;43147;-68
2021/12/20 09:28:12;;;;;;;;;;;;;;;;;;5167931;27;42941;-69
2021/12/20 09:30:39;;;;;;;;;;;;;;;;;;5162254;27;45502;-69
2021/12/20 09:33:05;;;;;;;;;;;;;;;;;;5163860;27;44698;-69
2021/12/20 09:35:31;;;;;;;;;;;;;;;;;;5156328;27;44213;-71
2021/12/20 09:37:58;;;;;;;;;;;;;;;;;;5155057;27;44416;-69
2021/12/20 09:40:32;;;;;;;;;;;;;;;;;;5152917;27;45802;-70
2021/12/20 09:42:58;;;;;;;;;;;;;;;;;;5160941;27;43659;-68
2021/12/20 09:45:24;;;;;;;;;;;;;;;;;;5161072;27;45624;-68
2021/12/20 09:47:51;;;;;;;;;;;;;;;;;;5156212;27;43483;-67
2021/12/20 09:50:17;;;;;;;;;;;;;;;;;;5165344;27;45901;-68
2021/12/20 09:52:43;;;;;;;;;;;;;;;;;;5173582;27;46057;-69
2021/12/20 09:55:10;;;;;;;;;;;;;;;;;;5157341;27;43706;-69
2021/12/20 09:57:36;;;;;;;;;;;;;;;;;;5155714;27;44390;-69
2021/12/20 10:00:02;;;;;;;;;;;;;;;;;;5152470;27;45934;-69
2021/12/20 10:02:28;;;;;;;;;;;;;;;;;;5158336;27;45102;-69
2021/12/20 10:04:55;;;;;;;;;;;;;;;;;;5154237;27;45661;-69
2021/12/20 10:07:24;;;;;;;;;;;;;;;;;;5160155;27;43814;-69
2021/12/20 10:09:50;;;;;;;;;;;;;;;;;;5171996;27;43614;-69
2021/12/20 10:12:17;;;;;;;;;;;;;;;;;;5168642;27;43319;-69
2021/12/20 10:14:43;;;;;;;;;;;;;;;;;;5171501;27;44853;-69
2021/12/20 10:17:10;;;;;;;;;;;;;;;;;;5156118;27;44399;-69
2021/12/20 10:19:38;;;;;;;;;;;;;;;;;;5153987;27;46553;-69
2021/12/20 10:22:05;;;;;;;;;;;;;;;;;;5154315;27;43535;-69
2021/12/20 10:24:32;;;;;;;;;;;;;;;;;;5156243;27;45477;-69
2021/12/20 10:26:58;;;;;;;;;;;;;;;;;;5159137;27;45673;-69
2021/12/20 10:29:24;;;;;;;;;;;;;;;;;;5160096;27;44273;-69
2021/12/20 10:31:51;;;;;;;;;;;;;;;;;;5159291;27;44713;-69
2021/12/20 10:34:19;;;;;;;;;;;;;;;;;;5153961;27;45657;-70
2021/12/20 10:36:45;;;;;;;;;;;;;;;;;;5155454;27;44364;-69
2021/12/20 10:39:14;;;;;;;;;;;;;;;;;;5158727;27;44701;-70
2021/12/20 10:41:49;;;;;;;;;;;;;;;;;;5161883;27;42198;-71
2021/12/20 10:44:18;;;;;;;;;;;;;;;;;;5156262;27;45530;-70
2021/12/20 10:46:45;;;;;;;;;;;;;;;;;;5166234;27;45768;-70
2021/12/20 10:49:14;;;;;;;;;;;;;;;;;;5164998;27;44739;-69
2021/12/20 10:51:40;;;;;;;;;;;;;;;;;;5151421;27;45697;-70
2021/12/20 10:54:10;;;;;;;;;;;;;;;;;;5158817;27;44844;-69
2021/12/20 10:56:36;;;;;;;;;;;;;;;;;;5167579;27;45404;-69
2021/12/20 10:59:02;;;;;;;;;;;;;;;;;;5168897;27;44691;-69
2021/12/20 11:04:04;;;;;;;;;;;;;;;;;;5166156;27;44295;-69
2021/12/20 11:09:17;;;;;;;;;;;;;;;;;;5153556;27;44903;-70
2021/12/20 11:11:44;;;;;;;;;;;;;;;;;;5160046;27;46193;-69
2021/12/20 11:14:10;;;;;;;;;;;;;;;;;;5153124;27;44652;-69
2021/12/20 11:16:36;;;;;;;;;;;;;;;;;;5153571;27;44357;-69
2021/12/20 11:19:02;;;;;;;;;;;;;;;;;;5166379;27;45929;-69
2021/12/20 11:21:29;;;;;;;;;;;;;;;;;;5168046;27;45217;-69
2021/12/20 11:23:55;;;;;;;;;;;;;;;;;;5165384;27;45731;-69
2021/12/20 11:26:22;;;;;;;;;;;;;;;;;;5165560;27;44858;-70
2021/12/20 11:28:50;;;;;;;;;;;;;;;;;;5162388;27;43815;-69
2021/12/20 11:31:16;;;;;;;;;;;;;;;;;;5161746;27;45509;-69
2021/12/20 11:33:43;;;;;;;;;;;;;;;;;;5155440;27;35440;-69
2021/12/20 11:36:09;;;;;;;;;;;;;;;;;;5161498;27;45424;-69
2021/12/20 11:38:35;;;;;;;;;;;;;;;;;;5172320;27;44682;-69
2021/12/20 11:41:01;;;;;;;;;;;;;;;;;;5158664;27;44891;-68
2021/12/20 11:43:28;;;;;;;;;;;;;;;;;;5160711;27;44411;-68
2021/12/20 11:45:54;;;;;;;;;;;;;;;;;;5153377;27;44590;-69
2021/12/20 11:48:20;;;;;;;;;;;;;;;;;;5151515;27;45785;-68
2021/12/20 11:50:47;;;;;;;;;;;;;;;;;;5159859;27;45168;-69
2021/12/20 11:53:13;;;;;;;;;;;;;;;;;;5167482;27;45698;-69
2021/12/20 11:55:39;;;;;;;;;;;;;;;;;;5164765;27;44396;-68
2021/12/20 11:58:07;;;;;;;;;;;;;;;;;;5165009;27;45688;-68
2021/12/20 12:00:33;;;;;;;;;;;;;;;;;;5154897;27;44365;-69
2021/12/20 12:02:59;;;;;;;;;;;;;;;;;;5164914;27;44464;-69
2021/12/20 12:05:26;;;;;;;;;;;;;;;;;;5171604;27;45395;-68
2021/12/20 12:07:52;;;;;;;;;;;;;;;;;;5170589;27;42497;-74
2021/12/20 12:10:19;;;;;;;;;;;;;;;;;;5164787;27;46446;-70
2021/12/20 12:12:46;;;;;;;;;;;;;;;;;;5171709;27;45333;-70
2021/12/20 12:16:05;;;;;;;6.35;1.65;;;;;;;;;;5134812;27;1206491;-68
2021/12/20 12:19:36;;;;;;;6.55;1.15;;;;;;;;;;5199828;27;20470;-69
2021/12/20 12:22:02;;;;;;;11.73;2.58;;;;;;;;;;5183990;27;20051;-65
2021/12/20 12:24:46;;;;;;;8.27;1.50;;;;;;;;;;5189091;27;20084;-71
2021/12/20 12:27:20;;;;;;;9.30;1.45;;;;;;;;;;5185715;27;20488;-64
2021/12/20 14:52:28;;;;;;;12.48;1.70;;;;;;;;;;5091828;27;20395;-61
2021/12/20 14:54:56;;;;;;;11.40;1.73;;;;;;;;;;5081155;28;20168;-62
2021/12/20 14:57:24;;;;;;;9.73;1.67;;;;;;;;;;5085752;28;20048;-62
2021/12/20 14:59:51;;;;;;;15.90;1.97;;;;;;;;;;5102047;28;20451;-62
2021/12/20 15:02:25;;;;;;;8.52;1.30;;;;;;;;;;5066401;28;20268;-60
2021/12/20 15:04:52;;;;;;;11.95;1.55;;;;;;;;;;5076509;28;20063;-61
2021/12/20 15:07:19;;;;;;;16.77;1.98;;;;;;;;;;5079009;28;20404;-61
2021/12/20 15:09:45;;;;;;;16.13;2.95;;;;;;;;;;5065144;28;20057;-61
2021/12/20 15:12:12;;;;;;;9.93;2.15;;;;;;;;;;5066804;28;20081;-62
2021/12/20 15:14:39;;;;;;;14.10;2.30;;;;;;;;;;5080804;28;20064;-61
2021/12/20 15:17:05;;;;;;;9.70;1.80;;;;;;;;;;5084968;28;20532;-62
2021/12/20 15:19:32;;;;;;;18.83;2.33;;;;;;;;;;5083244;28;20510;-62
2021/12/20 15:21:58;;;;;;;16.48;2.22;;;;;;;;;;5089593;28;20505;-62
2021/12/20 15:24:25;;;;;;;9.68;1.90;;;;;;;;;;5078739;28;20089;-62
2021/12/20 15:26:51;;;;;;;9.98;2.03;;;;;;;;;;5077840;28;20052;-61
2021/12/20 15:29:20;;;;;;;13.50;1.60;;;;;;;;;;5104166;27;20502;-62
2021/12/20 15:31:47;;;;;;;16.15;1.83;;;;;;;;;;5104452;27;20139;-61
2021/12/20 15:34:13;;;;;;;15.25;1.80;;;;;;;;;;5084000;28;20430;-61
2021/12/20 15:36:40;;;;;;;12.50;1.83;;;;;;;;;;5077231;28;20076;-62
2021/12/20 15:39:07;;;;;;;15.77;1.60;;;;;;;;;;5071990;28;20061;-62
2021/12/20 15:41:34;;;;;;;15.13;1.77;;;;;;;;;;5073534;28;20064;-60
2021/12/20 15:44:00;;;;;;;11.57;1.60;;;;;;;;;;5072352;28;20053;-61
2021/12/20 15:46:28;;;;;;;16.15;2.17;;;;;;;;;;5065050;28;20107;-63
2021/12/20 15:48:55;;;;;;;8.05;1.70;;;;;;;;;;5078642;28;20040;-63
2021/12/20 15:51:23;;;;;;;18.27;2.47;;;;;;;;;;5084302;28;20057;-63
2021/12/20 15:53:50;;;;;;;9.18;1.52;;;;;;;;;;5084467;28;20529;-62
2021/12/20 15:56:24;;;;;;;11.23;2.60;;;;;;;;;;5072905;28;20190;-62
2021/12/20 15:59:10;;;;;;;9.13;1.88;;;;;;;;;;5072984;28;20928;-62
2021/12/20 16:01:37;;;;;;;12.70;1.75;;;;;;;;;;5066834;28;20053;-62
2021/12/20 16:04:03;;;;;;;11.02;1.55;;;;;;;;;;5049398;28;20049;-61
2021/12/20 16:06:30;;;;;;;10.40;1.58;;;;;;;;;;5050833;28;20123;-61
2021/12/20 16:08:57;;;;;;;18.98;1.80;;;;;;;;;;5070632;28;20087;-60
2021/12/20 16:11:23;;;;;;;11.90;1.60;;;;;;;;;;5059397;28;20052;-59
2021/12/20 16:13:49;;;;;;;11.20;1.67;;;;;;;;;;5068733;28;20501;-59
2021/12/20 16:16:16;;;;;;;10.23;1.67;;;;;;;;;;5062446;28;20046;-60
2021/12/20 16:18:42;;;;;;;6.45;1.98;;;;;;;;;;5066807;28;20065;-60
2021/12/20 16:21:08;;;;;;;14.20;1.80;;;;;;;;;;5060351;28;20054;-59
2021/12/20 16:23:35;;;;;;;10.93;2.05;;;;;;;;;;5055223;28;20496;-60
2021/12/20 16:26:02;;;;;;;11.35;2.40;;;;;;;;;;5066066;28;20346;-60
2021/12/20 16:28:28;;;;;;;8.52;1.75;;;;;;;;;;5053161;28;20059;-62
2021/12/20 16:30:54;;;;;;;6.03;1.70;;;;;;;;;;5069789;28;20053;-61
2021/12/20 16:33:22;;;;;;;11.77;2.10;;;;;;;;;;5062455;28;20042;-61
2021/12/20 16:35:48;;;;;;;9.48;2.10;;;;;;;;;;5066435;28;20587;-62
2021/12/20 16:38:14;;;;;;;14.52;2.53;;;;;;;;;;5064574;28;20055;-61
2021/12/20 16:40:41;;;;;;;11.65;1.90;;;;;;;;;;5058568;28;20089;-61
2021/12/20 16:43:07;;;;;;;13.05;1.77;;;;;;;;;;5068434;28;20053;-62
2021/12/20 16:48:13;;;;;;;11.40;1.88;;;;;;;;;;5071018;28;20919;-62
2021/12/20 16:50:40;;;;;;;11.00;2.25;;;;;;;;;;5068101;28;20958;-62
2021/12/20 16:53:07;;;;;;;11.68;2.00;;;;;;;;;;5059727;28;20146;-62
2021/12/20 16:55:36;;;;;;;10.50;1.92;;;;;;;;;;5066559;28;20530;-62
2021/12/20 16:58:06;;;;;;;10.25;1.83;;;;;;;;;;5064082;28;20056;-62
2021/12/20 17:00:35;;;;;;;13.15;1.85;;;;;;;;;;5062525;28;20144;-62
2021/12/20 17:03:10;;;;;;;11.98;1.95;;;;;;;;;;5070276;28;20061;-63
2021/12/20 17:05:57;;;;;;;10.98;2.22;;;;;;;;;;5068998;28;20107;-62
2021/12/20 17:08:28;;;;;;;12.60;2.05;;;;;;;;;;5060332;28;20876;-63
2021/12/20 17:10:55;;;;;;;17.77;2.20;;;;;;;;;;5064421;28;20049;-63
2021/12/20 17:13:23;;;;;;;14.60;2.30;;;;;;;;;;5068916;28;20471;-62
2021/12/20 17:15:50;;;;;;;13.70;2.15;;;;;;;;;;5065649;28;20148;-63
2021/12/20 17:18:16;;;;;;;10.77;1.98;;;;;;;;;;5067138;28;20167;-61
2021/12/20 17:20:44;;;;;;;10.27;2.03;;;;;;;;;;5067735;28;20900;-61
2021/12/20 17:23:10;;;;;;;14.70;2.08;;;;;;;;;;5068734;28;20487;-62
2021/12/20 17:25:37;;;;;;;12.57;2.65;;;;;;;;;;5064576;28;20056;-61
2021/12/20 17:28:03;;;;;;;14.65;2.50;;;;;;;;;;5069188;28;20795;-61
2021/12/20 17:30:29;;;;;;;10.90;2.55;;;;;;;;;;5059990;28;20135;-62
2021/12/20 17:32:56;;;;;;;15.32;2.53;;;;;;;;;;5066226;28;20053;-62
2021/12/20 17:35:22;;;;;;;10.38;2.70;;;;;;;;;;5065254;28;20053;-62
2021/12/20 17:37:49;;;;;;;13.02;2.80;;;;;;;;;;5065877;28;20147;-63
2021/12/20 17:40:30;;;;;;;8.98;2.60;;;;;;;;;;5066633;28;20059;-63
2021/12/20 17:42:56;;;;;;;10.55;2.25;;;;;;;;;;5066014;28;20057;-63
2021/12/20 17:45:23;;;;;;;9.27;2.40;;;;;;;;;;5065186;28;20049;-63
2021/12/20 17:47:49;;;;;;;17.00;2.80;;;;;;;;;;5048172;28;20487;-64
2021/12/20 17:50:16;;;;;;;11.70;3.10;;;;;;;;;;5059623;28;20053;-63
2021/12/20 17:52:43;;;;;;;17.08;4.10;;;;;;;;;;5066456;28;20107;-63
2021/12/20 17:55:10;;;;;;;10.70;4.13;;;;;;;;;;5058758;28;20069;-63
2021/12/20 17:57:37;;;;;;;13.07;4.80;;;;;;;;;;5050970;28;20102;-63
2021/12/20 18:00:05;;;;;;;20.35;7.50;;;;;;;;;;5066143;28;20049;-63
2021/12/20 18:02:32;;;;;;;10.27;3.85;;;;;;;;;;5051540;28;20049;-63
2021/12/20 18:04:59;;;;;;;17.45;5.28;;;;;;;;;;5050832;28;20256;-64
2021/12/20 18:07:28;;;;;;;19.38;4.35;;;;;;;;;;5063045;28;20064;-63
2021/12/20 18:10:01;;;;;;;13.55;3.78;;;;;;;;;;5052750;28;20088;-64
2021/12/20 18:12:27;;;;;;;13.45;4.18;;;;;;;;;;5064742;28;20451;-64
2021/12/20 18:14:54;;;;;;;14.82;3.60;;;;;;;;;;5061173;28;20125;-64
2021/12/20 18:17:20;;;;;;;15.18;4.30;;;;;;;;;;5059533;28;20059;-64
2021/12/20 18:19:46;;;;;;;17.00;4.07;;;;;;;;;;5066305;28;20156;-64
2021/12/20 18:22:13;;;;;;;13.73;3.60;;;;;;;;;;5049194;28;20081;-64
2021/12/20 18:24:40;;;;;;;14.90;4.05;;;;;;;;;;5066854;28;20080;-65
2021/12/20 18:27:07;;;;;;;14.10;4.00;;;;;;;;;;5057685;28;20144;-64
2021/12/20 18:29:33;;;;;;;15.80;4.80;;;;;;;;;;5065465;28;20163;-63
2021/12/20 18:32:00;;;;;;;13.70;4.35;;;;;;;;;;5063717;28;20048;-64
2021/12/20 18:34:26;;;;;;;16.48;4.75;;;;;;;;;;5076206;28;20053;-63
2021/12/20 18:36:53;;;;;;;15.65;4.18;;;;;;;;;;5066492;28;20103;-63
2021/12/20 18:39:21;;;;;;;12.48;4.15;;;;;;;;;;5060866;28;20180;-64
2021/12/20 18:41:47;;;;;;;19.95;4.85;;;;;;;;;;5064765;28;20057;-62
2021/12/20 18:44:14;;;;;;;17.95;4.43;;;;;;;;;;5066848;28;20053;-64
2021/12/20 18:46:40;;;;;;;16.70;3.88;;;;;;;;;;5055993;28;20057;-63